Site contains unofficial IBTrACS data. Visit the IBTrACS Website to access archived data.

1921 Tropical Cyclone NOT_NAMED (1921092S14151)


IBTrACS version v04r00. Visit IBTrACS website for data access.
Please direct all questions to the IBTrACS Q and A forum

Storm track - Intensity - Wind Radii - Intensity Data - Source Data - All data

Summary Information

Storm ID 1921092S14151
Start Apr 1 23Z
Landfall Apr 5 18Z
Max Intensity 50 kt (Apr 6 00Z), 970 mb (Apr 5 14Z)
End Apr 7 23Z
ATCF IDs
Track status Best track data.

Storm track plot

Map of storm track

Intensity plots

Map of storm track

Radial wind information

No radial wind information for this storm


Position and Intensity Table

BASIN ISO_TIME_________ NATURE LAT LON WMO PRES BOM PRES DS824 WIND DS824 PRES
degrees north degrees east mb mb kts mb
SP 1921-04-01 23:00:00 NR -14.10 150.50
SP 1921-04-02 00:00:00 TS -14.18 150.48
SP 03:00:00 TS -14.38 150.39
SP 06:00:00 TS -14.58 150.32
SP 09:00:00 TS -14.79 150.29
SP 12:00:00 TS -15.00 150.30
SP 15:00:00 TS -15.22 150.37
SP 18:00:00 TS -15.43 150.48
SP 21:00:00 TS -15.64 150.60
SP 23:00:00 TS -15.77 150.68
SP 1921-04-03 00:00:00 TS -15.83 150.71
SP 03:00:00 TS -15.96 150.78
SP 06:00:00 TS -16.06 150.83
SP 09:00:00 TS -16.15 150.87
SP 12:00:00 TS -16.24 150.90
SP 15:00:00 TS -16.34 150.92
SP 18:00:00 TS -16.45 150.95
SP 21:00:00 TS -16.60 150.97
SP 23:00:00 TS -16.72 150.99
SP 1921-04-04 00:00:00 TS -16.79 151.01
SP 03:00:00 TS -17.04 151.07
SP 06:00:00 TS -17.31 151.13
SP 09:00:00 TS -17.60 151.18
SP 11:00:00 TS -17.80 151.20
SP 12:00:00 TS -17.89 151.20
SP 15:00:00 TS -18.12 151.20
SP 18:00:00 TS -18.38 151.18
SP 21:00:00 TS -18.68 151.14
SP 23:00:00 TS -18.93 151.11
SP 1921-04-05 00:00:00 TS -19.09 151.09
SP 03:00:00 TS -19.67 150.98
SP 06:00:00 TS -20.33 150.84
SP 09:00:00 TS -21.03 150.70
SP 12:00:00 TS -21.71 150.57
SP 14:00:00 TS -22.14 150.50 970 970
SP 15:00:00 TS -22.33 150.47 971
SP 16:00:00 TS -22.53 150.45 973
SP 18:00:00 TS -22.96 150.49 977
SP 21:00:00 TS -23.64 150.71 983
SP 23:00:00 TS -24.09 150.94 988 988
SP 1921-04-06 00:00:00 TS -24.30 151.06 50 988
SP 03:00:00 TS -24.92 151.51
SP 06:00:00 TS -25.50 152.10
SP 09:00:00 TS -26.03 152.83
SP 10:00:00 TS -26.20 153.08
SP 12:00:00 TS -26.54 153.60
SP 15:00:00 TS -27.03 154.40
SP 18:00:00 TS -27.48 155.21
SP 21:00:00 TS -27.90 156.02
SP 23:00:00 TS -28.16 156.54
SP 1921-04-07 00:00:00 TS -28.28 156.79
SP 03:00:00 NR -28.51 157.35
SP 06:00:00 NR -28.64 157.80
SP 09:00:00 NR -28.69 158.17
SP 12:00:00 NR -28.68 158.47
SP 15:00:00 NR -28.61 158.71
SP 18:00:00 NR -28.51 158.91
SP 21:00:00 NR -28.39 159.09
SP 23:00:00 NR -28.30 159.20

Source Information

Agency Information
USA
TOKYO
CMA
HKO
NEWDELHI
REUNION
BOM IDCKMSTM0S.csv:Line=409:unnamed
NADI
WELLINGTON
DS824 aus_area.dat:39:NOT NAMED
TD9636
TD9635
NEUMANN
MLC

All available IBTrACS Data

SEASON BASIN SUBBASIN ISO_TIME_________ NATURE LAT LON WMO PRES WMO AGENCY DIST2LAND LANDFALL IFLAG USA SSHS BOM LAT BOM LON BOM PRES BOM PRES_METHOD DS824 LAT DS824 LON DS824 STAGE DS824 WIND DS824 PRES STORM SPEED STORM DIR
Year degrees north degrees east mb km km 1 degrees north degrees east mb degrees north degrees east kts mb kts degrees
1921 SP EA 1921-04-01 23:00:00 NR -14.10 150.50 bom 380 380 ______O_______ -1 -14.10 150.50 5 190
1921 SP EA 1921-04-02 00:00:00 TS -14.18 150.48 392 392 ______P__O____ -1 -14.17 150.47 -14.20 150.50 TC 4 201
1921 SP EA 03:00:00 TS -14.38 150.39 414 414 ______P__P____ -1 -14.37 150.38 -14.40 150.41 TC 4 200
1921 SP EA 06:00:00 TS -14.58 150.32 436 436 ______P__P____ -1 -14.57 150.32 -14.60 150.34 TC 4 194
1921 SP EA 09:00:00 TS -14.79 150.29 459 459 ______P__P____ -1 -14.78 150.28 -14.80 150.30 TC 4 183
1921 SP EA 12:00:00 TS -15.00 150.30 bom 481 481 ______O__O____ -1 -15.00 150.30 -15.00 150.30 TC 4 170
1921 SP EA 15:00:00 TS -15.22 150.37 503 503 ______P__P____ -1 -15.23 150.38 -15.21 150.36 TC 5 158
1921 SP EA 18:00:00 TS -15.43 150.48 520 510 ______P__P____ -1 -15.45 150.49 -15.41 150.46 TC 5 152
1921 SP EA 21:00:00 TS -15.64 150.60 520 516 ______P__P____ -1 -15.67 150.62 -15.61 150.58 TC 5 150
1921 SP EA 23:00:00 TS -15.77 150.68 bom 521 521 ______O__P____ -1 -15.80 150.70 -15.74 150.66 TC 4 150
1921 SP EA 1921-04-03 00:00:00 TS -15.83 150.71 521 518 ______P__O____ -1 -15.85 150.73 -15.80 150.70 TC 3 152
1921 SP EA 03:00:00 TS -15.96 150.78 519 510 ______P__P____ -1 -15.98 150.79 -15.94 150.77 TC 3 155
1921 SP EA 06:00:00 TS -16.06 150.83 510 510 ______P__P____ -1 -16.08 150.84 -16.05 150.82 TC 2 157
1921 SP EA 09:00:00 TS -16.15 150.87 506 506 ______P__P____ -1 -16.16 150.88 -16.15 150.86 TC 2 159
1921 SP EA 12:00:00 TS -16.24 150.90 506 496 ______P__P____ -1 -16.24 150.91 -16.24 150.89 TC 2 163
1921 SP EA 15:00:00 TS -16.34 150.92 496 487 ______P__P____ -1 -16.32 150.93 -16.35 150.91 TC 2 169
1921 SP EA 18:00:00 TS -16.45 150.95 487 474 ______P__P____ -1 -16.43 150.95 -16.47 150.94 TC 3 169
1921 SP EA 21:00:00 TS -16.60 150.97 474 464 ______P__P____ -1 -16.58 150.98 -16.61 150.97 TC 3 173
1921 SP EA 23:00:00 TS -16.72 150.99 bom 464 455 ______O__P____ -1 -16.70 151.00 -16.73 150.99 TC 4 167
1921 SP EA 1921-04-04 00:00:00 TS -16.79 151.01 455 441 ______P__O____ -1 -16.78 151.02 -16.80 151.00 TC 5 166
1921 SP EA 03:00:00 TS -17.04 151.07 441 413 ______P__P____ -1 -17.03 151.08 -17.04 151.06 TC 5 167
1921 SP EA 06:00:00 TS -17.31 151.13 413 393 ______P__P____ -1 -17.31 151.14 -17.31 151.12 TC 6 170
1921 SP EA 09:00:00 TS -17.60 151.18 393 376 ______P__P____ -1 -17.61 151.18 -17.60 151.17 TC 6 173
1921 SP EA 11:00:00 TS -17.80 151.20 bom 376 368 ______O__P____ -1 -17.80 151.20 -17.80 151.19 TC 6 0
1921 SP EA 12:00:00 TS -17.89 151.20 368 352 ______P__O____ -1 -17.87 151.21 -17.90 151.20 TC 5 0
1921 SP EA 15:00:00 TS -18.12 151.20 352 329 ______P__P____ -1 -18.09 151.21 -18.16 151.20 TC 5 183
1921 SP EA 18:00:00 TS -18.38 151.18 329 300 ______P__P____ -1 -18.33 151.19 -18.42 151.17 TC 6 185
1921 SP EA 21:00:00 TS -18.68 151.14 300 287 ______P__P____ -1 -18.64 151.15 -18.73 151.13 TC 7 187
1921 SP EA 23:00:00 TS -18.93 151.11 bom 287 275 ______O__P____ -1 -18.90 151.10 -18.97 151.11 TC 8 188
1921 SP EA 1921-04-05 00:00:00 TS -19.09 151.09 275 241 ______P__O____ -1 -19.09 151.07 -19.10 151.10 TC 11 190
1921 SP EA 03:00:00 TS -19.67 150.98 236 188 ______P__P____ -1 -19.75 150.96 -19.59 150.99 TC 13 191
1921 SP EA 06:00:00 TS -20.33 150.84 188 150 ______P__P____ -1 -20.50 150.82 -20.17 150.86 TC 14 191
1921 SP EA 09:00:00 TS -21.03 150.70 150 78 ______P__P____ -1 -21.25 150.67 -20.81 150.73 TC 14 190
1921 SP EA 12:00:00 TS -21.71 150.57 78 33 ______P__P____ -1 -21.93 150.50 -21.50 150.63 TC 14 189
1921 SP EA 14:00:00 TS -22.14 150.50 970 bom 33 11 ______O__P____ -1 -22.30 150.40 970 -21.98 150.60 TC 13 189
1921 SP EA 15:00:00 TS -22.33 150.47 11 0 ______P__P____ -1 -22.45 150.34 971 -22.22 150.59 TC 12 186
1921 SP EA 16:00:00 TS -22.53 150.45 bom 10 0 ______I__P____ -1 -22.60 150.30 973 -22.46 150.60 TC 13 0
1921 SP EA 18:00:00 TS -22.96 150.49 0 0 ______P__P____ -1 -22.98 150.33 977 -22.93 150.64 TC 14 168
1921 SP EA 21:00:00 TS -23.64 150.71 0 0 ______P__P____ -1 -23.64 150.62 983 -23.64 150.80 TC 15 160
1921 SP EA 23:00:00 TS -24.09 150.94 988 bom 0 0 ______O__P____ -1 -24.10 150.90 988 4 -24.08 150.98 TC 15 154
1921 SP EA 1921-04-06 00:00:00 TS -24.30 151.06 0 0 ______P__O____ -1 -24.31 151.02 -24.30 151.10 TC 50 988 15 148
1921 SP EA 03:00:00 TS -24.92 151.51 0 0 ______P__P____ -1 -24.92 151.47 -24.92 151.54 TC 15 142
1921 SP EA 06:00:00 TS -25.50 152.10 bom 0 0 ______O__O____ -1 -25.50 152.10 -25.50 152.10 TC 16 133
1921 SP EA 09:00:00 TS -26.03 152.83 0 0 ______P__P____ -1 -26.03 152.91 -26.04 152.74 TC 17 128
1921 SP EA 10:00:00 TS -26.20 153.08 bom 0 0 ______O__P____ -1 -26.20 153.20 -26.21 152.97 TC 17 126
1921 SP EA 12:00:00 TS -26.54 153.60 49 49 ______P__P____ -1 -26.55 153.76 -26.53 153.44 TC 17 125
1921 SP EA 15:00:00 TS -27.03 154.40 119 117 ______P__P____ -1 -27.07 154.60 -26.98 154.21 TC 17 123
1921 SP EA 18:00:00 TS -27.48 155.21 175 175 ______P__P____ -1 -27.56 155.40 -27.41 155.01 TC 17 121
1921 SP EA 21:00:00 TS -27.90 156.02 237 237 ______P__P____ -1 -27.97 156.15 -27.81 155.85 TC 16 120
1921 SP EA 23:00:00 TS -28.16 156.54 bom 283 283 ______O__P____ -1 -28.20 156.60 -28.07 156.41 TC 15 119
1921 SP EA 1921-04-07 00:00:00 TS -28.28 156.79 313 313 ______P__O____ -1 -28.30 156.81 -28.20 156.70 TC 12 116
1921 SP EA 03:00:00 NR -28.51 157.35 370 370 ______P_______ -1 -28.51 157.35 TC 10 112
1921 SP EA 06:00:00 NR -28.64 157.80 409 409 ______P_______ -1 -28.64 157.80 TC 7 104
1921 SP EA 09:00:00 NR -28.69 158.17 448 448 ______P_______ -1 -28.69 158.17 TC 6 93
1921 SP EA 12:00:00 NR -28.68 158.47 477 477 ______P_______ -1 -28.68 158.47 TC 5 81
1921 SP EA 15:00:00 NR -28.61 158.71 497 497 ______P_______ -1 -28.61 158.71 TC 4 67
1921 SP EA 18:00:00 NR -28.51 158.91 517 517 ______P_______ -1 -28.51 158.91 4 56
1921 SP EA 21:00:00 NR -28.39 159.09 537 537 ______P_______ -1 -28.39 159.09 4 50
1921 SP EA 23:00:00 NR -28.30 159.20 bom 547 ______O_______ -1 -28.30 159.20 4 48